createdAt,value
2023-05-05T00:00:58.247Z,67.52
2023-05-05T00:01:58.301Z,68.44
2023-05-05T00:02:58.275Z,68.37
2023-05-05T00:03:58.288Z,68.06
2023-05-05T00:04:58.192Z,68.37
2023-05-05T00:05:58.195Z,68.57
2023-05-05T00:06:58.191Z,69.18
2023-05-05T00:07:58.175Z,68.98
2023-05-05T00:08:58.154Z,68.98
2023-05-05T00:09:58.143Z,68.47
2023-05-05T00:10:58.135Z,68.67
2023-05-05T00:11:58.130Z,68.77
2023-05-05T00:12:58.153Z,69.79
2023-05-05T00:13:58.123Z,70.54
2023-05-05T00:14:58.091Z,70.47
2023-05-05T00:15:58.081Z,70.98
2023-05-05T00:16:58.129Z,70.78
2023-05-05T00:17:58.084Z,71.42
2023-05-05T00:18:58.059Z,72.65
2023-05-05T00:19:58.041Z,72.65
2023-05-05T00:20:58.049Z,72.99
2023-05-05T00:21:58.017Z,74.15
2023-05-05T00:22:58.010Z,73.74
2023-05-05T00:23:57.995Z,74.80
2023-05-05T00:24:57.981Z,75.01
2023-05-05T00:25:57.975Z,74.73
2023-05-05T00:26:57.976Z,74.08
2023-05-05T00:27:57.952Z,73.68
2023-05-05T00:28:57.952Z,74.39
2023-05-05T00:29:57.923Z,74.39
2023-05-05T00:30:57.966Z,74.39
2023-05-05T00:31:57.911Z,74.80
2023-05-05T00:32:57.912Z,74.94
2023-05-05T00:33:57.872Z,75.65
2023-05-05T00:34:57.884Z,75.24
2023-05-05T00:35:57.858Z,75.45
2023-05-05T00:36:57.868Z,75.04
2023-05-05T00:37:57.842Z,75.24
2023-05-05T00:38:57.840Z,75.89
2023-05-05T00:39:57.818Z,75.99
2023-05-05T00:40:57.811Z,75.59
2023-05-05T00:41:57.798Z,75.14
2023-05-05T00:42:57.794Z,75.96
2023-05-05T00:43:57.780Z,75.99
2023-05-05T00:44:57.770Z,75.96
2023-05-05T00:45:57.854Z,75.14
2023-05-05T00:46:57.743Z,75.14
2023-05-05T00:47:57.750Z,74.08
2023-05-05T00:48:57.779Z,73.78
2023-05-05T00:49:57.731Z,73.88
2023-05-05T00:50:57.703Z,75.62
2023-05-05T00:51:57.688Z,73.57
2023-05-05T00:52:57.683Z,73.98
2023-05-05T00:53:57.688Z,73.44
2023-05-05T00:54:57.663Z,73.44
2023-05-05T00:55:57.656Z,73.44
2023-05-05T00:56:57.643Z,74.97
2023-05-05T00:57:57.626Z,74.87
2023-05-05T00:58:57.630Z,74.35
2023-05-05T00:59:57.617Z,72.82
2023-05-05T01:00:57.621Z,72.00
2023-05-05T01:01:57.666Z,71.49
2023-05-05T01:02:57.646Z,70.95
2023-05-05T01:03:57.610Z,70.95
2023-05-05T01:04:57.573Z,71.05
2023-05-05T01:05:57.538Z,70.20
2023-05-05T01:06:57.559Z,69.69
2023-05-05T01:07:57.544Z,68.97
2023-05-05T01:08:57.508Z,69.89
2023-05-05T01:10:18.129Z,69.38
2023-05-05T01:10:57.506Z,69.35
2023-05-05T01:11:57.474Z,68.43
2023-05-05T01:12:57.495Z,68.53
2023-05-05T01:13:57.460Z,68.02
2023-05-05T01:14:57.445Z,67.18
2023-05-05T01:15:57.440Z,66.97
2023-05-05T01:16:57.431Z,66.86
2023-05-05T01:17:57.444Z,68.19
2023-05-05T01:18:57.410Z,68.50
2023-05-05T01:19:57.415Z,68.74
2023-05-05T01:20:57.373Z,69.76
2023-05-05T01:21:57.367Z,70.27
2023-05-05T01:22:57.319Z,70.20
2023-05-05T01:23:57.286Z,70.20
2023-05-05T01:24:57.341Z,69.07
2023-05-05T01:25:57.340Z,69.28
2023-05-05T01:26:57.304Z,69.28
2023-05-05T01:27:57.299Z,70.10
2023-05-05T01:28:57.309Z,71.33
2023-05-05T01:29:57.292Z,70.81
2023-05-05T01:30:57.286Z,71.56
2023-05-05T01:31:57.331Z,72.41
2023-05-05T01:32:57.325Z,73.57
2023-05-05T01:33:57.263Z,73.88
2023-05-05T01:34:57.227Z,73.27
2023-05-05T01:35:57.222Z,74.32
2023-05-05T01:36:57.205Z,73.30
2023-05-05T01:37:57.210Z,73.40
2023-05-05T01:38:57.189Z,73.30
2023-05-05T01:39:57.171Z,73.71
2023-05-05T01:40:57.159Z,74.02
2023-05-05T01:41:57.167Z,73.50
2023-05-05T01:42:57.147Z,74.43
2023-05-05T01:43:57.153Z,73.30
2023-05-05T01:44:57.108Z,73.10
2023-05-05T01:45:57.181Z,73.10
2023-05-05T01:46:57.096Z,73.68
2023-05-05T01:47:57.112Z,72.65
2023-05-05T01:48:57.081Z,72.04
2023-05-05T01:49:57.083Z,72.65
2023-05-05T01:50:57.053Z,71.90
2023-05-05T01:51:57.048Z,72.11
2023-05-05T01:52:57.024Z,72.31
2023-05-05T01:53:57.022Z,71.80
2023-05-05T01:54:57.010Z,72.11
2023-05-05T01:55:57.027Z,71.08
2023-05-05T01:56:56.992Z,71.80
2023-05-05T01:57:56.993Z,70.98
2023-05-05T01:58:56.959Z,72.11
2023-05-05T01:59:56.956Z,71.59
2023-05-05T02:00:57.056Z,70.47
2023-05-05T02:01:56.951Z,71.70
2023-05-05T02:02:57.036Z,70.57
2023-05-05T02:03:56.939Z,70.16
2023-05-05T02:04:56.911Z,68.60
2023-05-05T02:05:56.895Z,70.75
2023-05-05T02:06:56.898Z,70.34
2023-05-05T02:07:56.890Z,70.84
2023-05-05T02:08:56.863Z,68.97
2023-05-05T02:09:56.854Z,68.05
2023-05-05T02:10:56.840Z,68.23
2023-05-05T02:11:56.830Z,67.21
2023-05-05T02:12:56.909Z,67.00
2023-05-05T02:13:56.845Z,66.15
2023-05-05T02:14:56.805Z,65.74
2023-05-05T02:15:56.859Z,65.03
2023-05-05T02:16:56.783Z,64.90
2023-05-05T02:17:56.822Z,64.39
2023-05-05T02:18:56.768Z,64.08
2023-05-05T02:19:56.753Z,63.67
2023-05-05T02:20:56.729Z,64.05
2023-05-05T02:21:56.748Z,63.13
2023-05-05T02:22:56.721Z,62.82
2023-05-05T02:23:56.705Z,62.62
2023-05-05T02:24:56.709Z,62.52
2023-05-05T02:25:56.696Z,63.23
2023-05-05T02:26:56.671Z,63.64
2023-05-05T02:27:56.687Z,63.34
2023-05-05T02:28:56.647Z,62.82
2023-05-05T02:29:56.655Z,62.82
2023-05-05T02:30:56.723Z,62.93
2023-05-05T02:31:56.614Z,62.73
2023-05-05T02:32:56.633Z,62.82
2023-05-05T02:33:56.607Z,63.34
2023-05-05T02:34:56.579Z,63.03
2023-05-05T02:35:56.590Z,62.93
2023-05-05T02:36:56.564Z,62.82
2023-05-05T02:37:56.570Z,62.70
2023-05-05T02:38:56.535Z,62.70
2023-05-05T02:39:56.552Z,62.59
2023-05-05T02:40:56.522Z,62.29
2023-05-05T02:41:56.512Z,62.18
2023-05-05T02:42:56.566Z,62.39
2023-05-05T02:43:56.499Z,62.29
2023-05-05T02:44:56.481Z,62.18
2023-05-05T02:45:56.474Z,62.11
2023-05-05T02:46:56.454Z,62.01
2023-05-05T02:47:56.487Z,62.01
2023-05-05T02:48:56.455Z,62.01
2023-05-05T02:49:56.436Z,62.11
2023-05-05T02:50:56.413Z,62.11
2023-05-05T02:51:56.397Z,62.32
2023-05-05T02:52:56.388Z,62.21
2023-05-05T02:53:56.392Z,62.32
2023-05-05T02:54:56.380Z,62.32
2023-05-05T02:55:56.360Z,62.73
2023-05-05T02:56:56.356Z,62.82
2023-05-05T02:57:56.328Z,62.82
2023-05-05T02:58:56.321Z,62.42
2023-05-05T02:59:56.308Z,63.03
2023-05-05T03:00:56.311Z,63.03
2023-05-05T03:01:56.406Z,64.15
2023-05-05T03:02:56.384Z,64.15
2023-05-05T03:03:56.334Z,64.69
2023-05-05T03:04:56.250Z,64.79
2023-05-05T03:05:56.241Z,64.69
2023-05-05T03:06:56.257Z,64.69
2023-05-05T03:07:56.255Z,64.49
2023-05-05T03:08:56.226Z,64.59
2023-05-05T03:09:56.230Z,64.18
2023-05-05T03:10:56.184Z,63.78
2023-05-05T03:11:56.195Z,64.69
2023-05-05T03:12:56.291Z,64.69
2023-05-05T03:13:56.169Z,63.78
2023-05-05T03:14:56.150Z,63.57
2023-05-05T03:15:56.188Z,63.67
2023-05-05T03:16:56.127Z,63.78
2023-05-05T03:17:56.148Z,63.67
2023-05-05T03:18:56.125Z,63.67
2023-05-05T03:19:56.099Z,63.78
2023-05-05T03:20:56.085Z,64.08
2023-05-05T03:21:56.096Z,64.69
2023-05-05T03:22:56.057Z,64.08
2023-05-05T03:23:56.051Z,64.01
2023-05-05T03:24:56.044Z,63.98
2023-05-05T03:25:56.041Z,64.08
2023-05-05T03:26:56.023Z,65.13
2023-05-05T03:27:56.008Z,64.93
2023-05-05T03:28:55.992Z,65.23
2023-05-05T03:29:55.939Z,65.64
2023-05-05T03:30:55.922Z,64.96
2023-05-05T03:31:55.979Z,65.06
2023-05-05T03:32:55.998Z,65.37
2023-05-05T03:33:55.938Z,65.37
2023-05-05T03:34:55.935Z,66.90
2023-05-05T03:35:55.870Z,65.26
2023-05-05T03:36:55.870Z,65.26
2023-05-05T03:37:55.853Z,65.98
2023-05-05T03:38:55.817Z,65.16
2023-05-05T03:39:55.850Z,65.88
2023-05-05T03:40:55.850Z,65.88
2023-05-05T03:41:55.788Z,65.57
2023-05-05T03:42:55.773Z,65.98
2023-05-05T03:43:55.816Z,66.18
2023-05-05T03:44:55.748Z,65.77
2023-05-05T03:45:55.761Z,65.98
2023-05-05T03:46:55.728Z,66.08
2023-05-05T03:47:55.762Z,66.18
2023-05-05T03:48:55.790Z,66.90
2023-05-05T03:49:55.704Z,66.18
2023-05-05T03:50:55.685Z,65.88
2023-05-05T03:51:55.693Z,67.41
2023-05-05T03:52:55.669Z,67.10
2023-05-05T03:53:55.662Z,67.30
2023-05-05T03:54:55.651Z,67.71
2023-05-05T03:55:55.644Z,67.00
2023-05-05T03:56:55.629Z,66.90
2023-05-05T03:57:55.618Z,66.59
2023-05-05T03:58:55.595Z,66.28
2023-05-05T03:59:55.588Z,65.88
2023-05-05T04:00:55.595Z,65.67
2023-05-05T04:01:55.624Z,64.93
2023-05-05T04:02:55.637Z,64.62
2023-05-05T04:03:55.693Z,64.62
2023-05-05T04:04:55.551Z,64.62
2023-05-05T04:05:55.552Z,64.62
2023-05-05T04:06:55.577Z,64.42
2023-05-05T04:07:55.533Z,64.28
2023-05-05T04:08:55.585Z,63.67
2023-05-05T04:09:55.489Z,63.67
2023-05-05T04:10:55.490Z,64.28
2023-05-05T04:11:55.462Z,64.39
2023-05-05T04:12:55.522Z,64.39
2023-05-05T04:13:55.464Z,64.28
2023-05-05T04:14:55.441Z,63.87
2023-05-05T04:15:55.435Z,64.28
2023-05-05T04:16:55.420Z,64.49
2023-05-05T04:17:55.535Z,64.28
2023-05-05T04:18:55.393Z,63.98
2023-05-05T04:19:55.387Z,64.28
2023-05-05T04:20:55.373Z,64.18
2023-05-05T04:21:55.353Z,63.87
2023-05-05T04:22:55.393Z,63.57
2023-05-05T04:23:55.331Z,63.47
2023-05-05T04:24:55.321Z,63.67
2023-05-05T04:25:55.316Z,63.23
2023-05-05T04:26:55.296Z,63.23
2023-05-05T04:27:55.287Z,63.95
2023-05-05T04:28:55.296Z,63.23
2023-05-05T04:29:55.278Z,62.93
2023-05-05T04:30:55.275Z,62.62
2023-05-05T04:31:55.258Z,62.73
2023-05-05T04:32:55.258Z,62.93
2023-05-05T04:33:55.228Z,62.93
2023-05-05T04:34:55.214Z,62.73
2023-05-05T04:35:55.211Z,62.82
2023-05-05T04:36:55.198Z,62.82
2023-05-05T04:37:55.181Z,62.73
2023-05-05T04:38:55.183Z,62.73
2023-05-05T04:39:55.164Z,62.82
2023-05-05T04:40:55.150Z,62.82
2023-05-05T04:41:55.136Z,62.93
2023-05-05T04:42:55.131Z,62.73
2023-05-05T04:43:55.125Z,62.93
2023-05-05T04:44:55.094Z,62.73
2023-05-05T04:45:55.123Z,62.39
2023-05-05T04:46:55.149Z,62.70
2023-05-05T04:47:55.135Z,62.59
2023-05-05T04:48:55.073Z,62.62
2023-05-05T04:49:55.057Z,62.39
2023-05-05T04:50:55.024Z,62.49
2023-05-05T04:51:55.044Z,62.49
2023-05-05T04:52:55.009Z,62.49
2023-05-05T04:53:55.009Z,62.29
2023-05-05T04:54:54.989Z,62.29
2023-05-05T04:55:55.001Z,62.49
2023-05-05T04:56:54.993Z,62.49
2023-05-05T04:57:54.978Z,62.49
2023-05-05T04:58:54.948Z,62.59
2023-05-05T04:59:54.961Z,62.49
2023-05-05T05:00:54.933Z,62.18
2023-05-05T05:01:54.946Z,62.59
2023-05-05T05:02:55.039Z,62.70
2023-05-05T05:03:54.980Z,62.29
2023-05-05T05:04:54.892Z,62.70
2023-05-05T05:05:54.877Z,62.70
2023-05-05T05:06:57.514Z,62.90
2023-05-05T05:07:54.856Z,62.90
2023-05-05T05:08:54.877Z,62.49
2023-05-05T05:09:54.835Z,62.70
2023-05-05T05:10:54.859Z,63.00
2023-05-05T05:11:54.812Z,63.10
2023-05-05T05:12:54.892Z,62.49
2023-05-05T05:13:54.789Z,62.80
2023-05-05T05:14:54.766Z,62.59
2023-05-05T05:15:54.778Z,62.56
2023-05-05T05:16:54.879Z,62.66
2023-05-05T05:17:54.767Z,62.77
2023-05-05T05:18:54.884Z,62.36
2023-05-05T05:19:54.726Z,62.36
2023-05-05T05:20:54.710Z,62.56
2023-05-05T05:21:54.711Z,63.18
2023-05-05T05:22:54.707Z,62.66
2023-05-05T05:23:54.671Z,62.54
2023-05-05T05:24:54.715Z,62.33
2023-05-05T05:25:54.660Z,62.02
2023-05-05T05:26:54.638Z,62.13
2023-05-05T05:28:06.191Z,62.84
2023-05-05T05:28:54.626Z,62.63
2023-05-05T05:29:54.608Z,62.23
2023-05-05T05:30:54.614Z,62.40
2023-05-05T05:31:54.661Z,62.81
2023-05-05T05:32:54.569Z,62.40
2023-05-05T05:33:54.567Z,62.40
2023-05-05T05:34:54.578Z,62.51
2023-05-05T05:35:54.544Z,62.71
2023-05-05T05:36:54.534Z,62.30
2023-05-05T05:37:54.523Z,62.71
2023-05-05T05:38:54.520Z,63.62
2023-05-05T05:39:54.516Z,63.01
2023-05-05T05:40:54.567Z,62.81
2023-05-05T05:41:54.473Z,62.81
2023-05-05T05:42:54.475Z,63.01
2023-05-05T05:43:54.467Z,63.32
2023-05-05T05:44:54.458Z,62.92
2023-05-05T05:45:54.513Z,63.01
2023-05-05T05:46:54.420Z,63.12
2023-05-05T05:47:54.443Z,63.42
2023-05-05T05:48:54.422Z,64.03
2023-05-05T05:49:54.394Z,64.14
2023-05-05T05:50:54.381Z,63.53
2023-05-05T05:51:54.360Z,64.03
2023-05-05T05:52:54.366Z,63.93
2023-05-05T05:53:55.111Z,63.80
2023-05-05T05:54:54.359Z,64.51
2023-05-05T05:55:54.328Z,63.70
2023-05-05T05:56:54.323Z,63.06
2023-05-05T05:57:54.295Z,63.46
2023-05-05T05:58:54.292Z,63.16
2023-05-05T05:59:54.284Z,62.75
2023-05-05T06:00:54.272Z,62.65
2023-05-05T06:01:54.263Z,63.06
2023-05-05T06:02:54.350Z,63.54
2023-05-05T06:03:54.295Z,62.93
2023-05-05T06:04:54.270Z,63.54
2023-05-05T06:05:54.215Z,63.33
2023-05-05T06:06:54.222Z,62.79
2023-05-05T06:07:54.200Z,63.00
2023-05-05T06:08:54.191Z,63.51
2023-05-05T06:09:54.185Z,62.79
2023-05-05T06:10:54.174Z,64.32
2023-05-05T06:11:54.142Z,64.12
2023-05-05T06:12:54.205Z,63.58
2023-05-05T06:13:54.132Z,64.90
2023-05-05T06:14:54.119Z,65.41
2023-05-05T06:15:54.152Z,64.79
2023-05-05T06:16:54.106Z,63.34
2023-05-05T06:17:54.141Z,63.65
2023-05-05T06:18:54.084Z,63.95
2023-05-05T06:19:54.612Z,65.07
2023-05-05T06:20:54.086Z,65.95
2023-05-05T06:21:54.040Z,65.24
2023-05-05T06:22:54.045Z,65.24
2023-05-05T06:23:54.023Z,64.73
2023-05-05T06:24:54.009Z,66.86
2023-05-05T06:25:54.011Z,66.36
2023-05-05T06:26:53.992Z,67.38
2023-05-05T06:27:53.974Z,67.27
2023-05-05T06:28:53.967Z,67.27
2023-05-05T06:29:53.946Z,67.68
2023-05-05T06:30:53.945Z,67.41
2023-05-05T06:31:54.177Z,66.90
2023-05-05T06:32:53.941Z,66.80
2023-05-05T06:33:54.001Z,68.32
2023-05-05T06:34:53.902Z,68.62
2023-05-05T06:35:53.896Z,70.15
2023-05-05T06:36:54.054Z,69.54
2023-05-05T06:37:53.886Z,69.98
2023-05-05T06:38:53.862Z,71.20
2023-05-05T06:39:53.841Z,72.21
2023-05-05T06:40:53.837Z,72.99
2023-05-05T06:41:53.829Z,75.02
2023-05-05T06:42:53.823Z,71.03
2023-05-05T06:43:53.817Z,71.23
2023-05-05T06:44:53.801Z,70.83
2023-05-05T06:45:53.781Z,70.39
2023-05-05T06:46:53.829Z,69.71
2023-05-05T06:47:53.803Z,71.03
2023-05-05T06:48:53.765Z,72.14
2023-05-05T06:49:53.773Z,70.83
2023-05-05T06:50:53.742Z,72.55
2023-05-05T06:51:53.723Z,72.85
2023-05-05T06:52:53.706Z,73.26
2023-05-05T06:53:53.696Z,72.96
2023-05-05T06:54:53.712Z,72.25
2023-05-05T06:55:53.679Z,72.45
2023-05-05T06:56:53.660Z,75.39
2023-05-05T06:57:53.672Z,74.48
2023-05-05T06:58:53.680Z,75.29
2023-05-05T06:59:53.634Z,74.17
2023-05-05T07:00:53.649Z,72.85
2023-05-05T07:01:53.616Z,72.25
2023-05-05T07:02:53.671Z,72.34
2023-05-05T07:03:53.643Z,72.85
2023-05-05T07:04:53.586Z,73.19
2023-05-05T07:05:53.566Z,73.09
2023-05-05T07:06:53.571Z,72.89
2023-05-05T07:07:53.555Z,74.62
2023-05-05T07:08:53.542Z,75.52
2023-05-05T07:09:53.521Z,76.44
2023-05-05T07:10:53.542Z,76.34
2023-05-05T07:11:53.508Z,77.29
2023-05-05T07:12:53.550Z,79.12
2023-05-05T07:13:53.493Z,82.26
2023-05-05T07:14:53.496Z,83.83
2023-05-05T07:15:53.519Z,87.18
2023-05-05T07:16:53.557Z,87.63
2023-05-05T07:17:53.454Z,89.00
2023-05-05T07:18:53.462Z,89.95
2023-05-05T07:19:53.748Z,92.44
2023-05-05T07:20:53.444Z,93.95
2023-05-05T07:21:53.400Z,95.48
2023-05-05T07:22:53.405Z,96.80
2023-05-05T07:23:53.384Z,97.41
2023-05-05T07:24:53.474Z,98.18
2023-05-05T07:25:53.407Z,98.89
2023-05-05T07:26:53.365Z,98.68
2023-05-05T07:27:53.343Z,99.29
2023-05-05T07:28:53.343Z,99.91
2023-05-05T07:29:53.329Z,99.91
2023-05-05T07:30:53.319Z,99.99
2023-05-05T07:31:53.345Z,99.99
2023-05-05T07:32:53.313Z,99.99
2023-05-05T07:33:53.288Z,99.99
2023-05-05T07:34:53.265Z,99.99
2023-05-05T07:35:53.294Z,99.99
2023-05-05T07:36:53.253Z,99.99
2023-05-05T07:37:53.249Z,99.99
2023-05-05T07:38:53.267Z,99.99
2023-05-05T07:39:53.210Z,99.99
2023-05-05T07:40:53.206Z,99.99
2023-05-05T07:41:53.176Z,99.99
2023-05-05T07:42:53.219Z,99.99
2023-05-05T07:43:53.194Z,99.99
2023-05-05T07:44:53.227Z,99.99
2023-05-05T07:45:53.198Z,99.99
2023-05-05T07:46:53.148Z,99.99
2023-05-05T07:47:53.192Z,99.99
2023-05-05T07:48:53.119Z,99.99
2023-05-05T07:49:53.104Z,99.99
2023-05-05T07:50:53.122Z,99.99
2023-05-05T07:51:53.085Z,99.99
2023-05-05T07:52:59.258Z,99.99
2023-05-05T07:53:53.071Z,99.99
2023-05-05T07:54:53.050Z,99.99
2023-05-05T07:55:53.034Z,99.99
2023-05-05T07:56:53.045Z,99.99
2023-05-05T07:57:53.002Z,99.99
2023-05-05T07:58:52.999Z,99.99
2023-05-05T07:59:53.008Z,99.99
2023-05-05T08:00:53.010Z,99.99
2023-05-05T08:01:54.846Z,99.99
2023-05-05T08:02:53.078Z,99.99
2023-05-05T08:03:53.061Z,99.99
2023-05-05T08:04:52.948Z,99.99
2023-05-05T08:05:52.931Z,99.99
2023-05-05T08:06:52.936Z,99.99
2023-05-05T08:07:52.921Z,99.99
2023-05-05T08:08:52.889Z,99.99
2023-05-05T08:09:52.879Z,99.99
2023-05-05T08:10:52.891Z,99.99
2023-05-05T08:11:52.872Z,99.99
2023-05-05T08:12:52.873Z,99.99
2023-05-05T08:13:52.848Z,99.99
2023-05-05T08:14:52.837Z,99.99
2023-05-05T08:15:52.902Z,99.99
2023-05-05T08:16:52.840Z,99.99
2023-05-05T08:17:52.872Z,99.99
2023-05-05T08:18:52.805Z,99.99
2023-05-05T08:19:52.771Z,99.99
2023-05-05T08:20:52.776Z,99.99
2023-05-05T08:21:52.802Z,99.99
2023-05-05T08:22:52.770Z,99.99
2023-05-05T08:23:52.737Z,99.57
2023-05-05T08:24:52.737Z,99.57
2023-05-05T08:25:52.732Z,98.14
2023-05-05T08:26:52.715Z,97.64
2023-05-05T08:27:52.687Z,97.84
2023-05-05T08:28:52.674Z,98.25
2023-05-05T08:29:52.682Z,98.45
2023-05-05T08:30:52.666Z,98.71
2023-05-05T08:31:52.743Z,99.32
2023-05-05T08:32:52.714Z,98.71
2023-05-05T08:33:52.632Z,98.10
2023-05-05T08:34:52.643Z,98.91
2023-05-05T08:35:52.616Z,98.61
2023-05-05T08:36:52.611Z,98.50
2023-05-05T08:37:52.633Z,99.02
2023-05-05T08:38:52.590Z,99.27
2023-05-05T08:39:52.579Z,99.07
2023-05-05T08:40:52.585Z,98.56
2023-05-05T08:41:52.536Z,97.85
2023-05-05T08:42:52.529Z,97.55
2023-05-05T08:43:52.534Z,97.34
2023-05-05T08:44:52.531Z,97.55
2023-05-05T08:45:52.521Z,98.72
2023-05-05T08:46:52.506Z,97.30
2023-05-05T08:47:52.523Z,96.59
2023-05-05T08:48:52.503Z,96.59
2023-05-05T08:49:52.457Z,95.06
2023-05-05T08:50:52.475Z,95.47
2023-05-05T08:51:52.457Z,95.17
2023-05-05T08:52:52.502Z,97.30
2023-05-05T08:53:52.401Z,97.30
2023-05-05T08:54:52.475Z,97.71
2023-05-05T08:55:52.418Z,99.53
2023-05-05T08:56:52.384Z,99.99
2023-05-05T08:57:52.385Z,99.99
2023-05-05T08:58:52.357Z,99.99
2023-05-05T08:59:52.378Z,99.04
2023-05-05T09:00:52.387Z,97.71
2023-05-05T09:01:52.334Z,92.94
2023-05-05T09:02:52.445Z,92.33
2023-05-05T09:03:52.788Z,93.35
2023-05-05T09:04:52.299Z,93.86
2023-05-05T09:05:52.268Z,92.94
2023-05-05T09:06:52.266Z,92.60
2023-05-05T09:07:52.283Z,94.73
2023-05-05T09:08:52.262Z,94.32
2023-05-05T09:09:52.226Z,93.71
2023-05-05T09:10:52.261Z,93.61
2023-05-05T09:11:52.232Z,93.05
2023-05-05T09:12:52.237Z,91.02
2023-05-05T09:13:52.195Z,90.41
2023-05-05T09:14:52.224Z,91.73
2023-05-05T09:15:52.178Z,92.64
2023-05-05T09:16:52.231Z,92.74
2023-05-05T09:17:52.176Z,92.24
2023-05-05T09:18:52.181Z,92.03
2023-05-05T09:19:52.142Z,91.42
2023-05-05T09:20:52.162Z,91.08
2023-05-05T09:21:52.106Z,90.77
2023-05-05T09:22:52.111Z,90.16
2023-05-05T09:23:52.087Z,90.16
2023-05-05T09:24:52.081Z,90.26
2023-05-05T09:25:52.088Z,91.08
2023-05-05T09:26:52.077Z,91.89
2023-05-05T09:27:52.049Z,91.38
2023-05-05T09:28:52.028Z,91.34
2023-05-05T09:29:52.015Z,90.73
2023-05-05T09:30:52.034Z,91.13
2023-05-05T09:31:51.998Z,91.44
2023-05-05T09:32:52.019Z,90.42
2023-05-05T09:33:51.972Z,90.73
2023-05-05T09:34:51.981Z,91.44
2023-05-05T09:35:51.952Z,90.18
2023-05-05T09:36:51.976Z,89.17
2023-05-05T09:37:51.941Z,87.34
2023-05-05T09:38:51.925Z,88.15
2023-05-05T09:39:51.912Z,88.66
2023-05-05T09:40:51.948Z,90.84
2023-05-05T09:41:51.889Z,90.54
2023-05-05T09:42:51.890Z,87.60
2023-05-05T09:43:52.239Z,86.15
2023-05-05T09:44:51.867Z,86.65
2023-05-05T09:45:51.867Z,86.71
2023-05-05T09:46:51.891Z,83.27
2023-05-05T09:47:53.237Z,83.47
2023-05-05T09:48:51.854Z,82.06
2023-05-05T09:49:51.888Z,83.07
2023-05-05T09:50:51.793Z,82.83
2023-05-05T09:51:51.792Z,84.34
2023-05-05T09:52:51.770Z,84.85
2023-05-05T09:53:51.928Z,85.05
2023-05-05T09:54:51.775Z,85.05
2023-05-05T09:55:51.747Z,87.48
2023-05-05T09:56:51.767Z,86.98
2023-05-05T09:57:51.781Z,85.25
2023-05-05T09:58:51.698Z,84.14
2023-05-05T09:59:51.725Z,85.25
2023-05-05T10:00:51.681Z,84.61
2023-05-05T10:01:51.749Z,86.22
2023-05-05T10:02:51.705Z,83.50
2023-05-05T10:03:51.660Z,83.19
2023-05-05T10:04:51.721Z,86.33
2023-05-05T10:05:51.736Z,86.02
2023-05-05T10:06:51.630Z,86.22
2023-05-05T10:07:51.610Z,84.67
2023-05-05T10:08:51.590Z,82.75
2023-05-05T10:09:51.588Z,81.03
2023-05-05T10:10:51.578Z,79.41
2023-05-05T10:11:51.576Z,80.43
2023-05-05T10:12:51.569Z,79.79
2023-05-05T10:13:51.547Z,79.99
2023-05-05T10:14:51.548Z,80.39
2023-05-05T10:15:51.565Z,81.74
2023-05-05T10:16:51.557Z,81.03
2023-05-05T10:18:06.128Z,83.05
2023-05-05T10:18:51.509Z,83.76
2023-05-05T10:19:51.496Z,85.08
2023-05-05T10:20:51.460Z,83.86
2023-05-05T10:21:51.457Z,84.27
2023-05-05T10:22:51.429Z,84.57
2023-05-05T10:23:51.426Z,85.94
2023-05-05T10:24:51.437Z,81.40
2023-05-05T10:25:51.427Z,77.76
2023-05-05T10:26:51.387Z,76.72
2023-05-05T10:27:51.404Z,77.93
2023-05-05T10:28:51.380Z,78.03
2023-05-05T10:29:51.377Z,80.35
2023-05-05T10:30:51.400Z,82.43
2023-05-05T10:31:51.386Z,80.62
2023-05-05T10:33:00.918Z,80.01
2023-05-05T10:33:51.396Z,79.81
2023-05-05T10:34:51.323Z,80.01
2023-05-05T10:35:51.313Z,81.22
2023-05-05T10:36:51.290Z,81.62
2023-05-05T10:37:51.316Z,81.32
2023-05-05T10:38:51.257Z,80.01
2023-05-05T10:39:51.282Z,83.24
2023-05-05T10:40:51.256Z,82.23
2023-05-05T10:41:51.243Z,81.93
2023-05-05T10:42:51.239Z,82.03
2023-05-05T10:43:51.250Z,81.93
2023-05-05T10:44:51.210Z,79.67
2023-05-05T10:45:51.333Z,79.67
2023-05-05T10:46:51.175Z,77.55
2023-05-05T10:47:51.296Z,75.84
2023-05-05T10:48:51.183Z,75.90
2023-05-05T10:49:51.173Z,77.11
2023-05-05T10:50:51.160Z,77.31
2023-05-05T10:51:51.140Z,79.87
2023-05-05T10:52:51.113Z,80.24
2023-05-05T10:53:51.245Z,79.73
2023-05-05T10:54:51.106Z,80.18
2023-05-05T10:55:51.101Z,80.33
2023-05-05T10:56:51.091Z,79.63
2023-05-05T10:57:51.098Z,79.53
2023-05-05T10:58:59.758Z,76.27
2023-05-05T10:59:51.082Z,77.17
2023-05-05T11:00:51.037Z,78.49
2023-05-05T11:01:51.033Z,77.88
2023-05-05T11:02:51.033Z,78.99
2023-05-05T11:03:51.047Z,76.07
2023-05-05T11:04:50.986Z,74.46
2023-05-05T11:05:50.974Z,74.76
2023-05-05T11:06:51.000Z,75.46
2023-05-05T11:07:51.020Z,76.77
2023-05-05T11:08:50.998Z,74.93
2023-05-05T11:09:50.921Z,72.61
2023-05-05T11:10:50.995Z,72.31
2023-05-05T11:11:50.914Z,69.99
2023-05-05T11:12:50.992Z,69.59
2023-05-05T11:13:50.898Z,68.78
2023-05-05T11:14:50.869Z,73.28
2023-05-05T11:15:50.859Z,75.79
2023-05-05T11:16:50.896Z,75.09
2023-05-05T11:17:50.862Z,75.76
2023-05-05T11:18:50.868Z,74.55
2023-05-05T11:19:50.836Z,74.55
2023-05-05T11:20:50.811Z,71.83
2023-05-05T11:21:50.828Z,73.04
2023-05-05T11:22:50.777Z,71.63
2023-05-05T11:23:50.801Z,72.20
2023-05-05T11:24:50.819Z,74.11
2023-05-05T11:25:50.762Z,72.50
2023-05-05T11:26:50.759Z,70.59
2023-05-05T11:27:50.743Z,71.50
2023-05-05T11:28:50.721Z,73.11
2023-05-05T11:29:52.087Z,70.19
2023-05-05T11:30:50.869Z,70.79
2023-05-05T11:31:50.699Z,70.09
2023-05-05T11:32:50.706Z,73.18
2023-05-05T11:33:50.697Z,73.27
2023-05-05T11:34:50.658Z,73.38
2023-05-05T11:35:51.060Z,72.17
2023-05-05T11:36:50.660Z,72.67
2023-05-05T11:37:50.648Z,73.27
2023-05-05T11:38:50.620Z,72.77
2023-05-05T11:39:50.610Z,73.41
2023-05-05T11:40:50.585Z,73.61
2023-05-05T11:41:50.609Z,72.50
2023-05-05T11:42:50.616Z,71.40
2023-05-05T11:43:50.588Z,71.09
2023-05-05T11:44:50.570Z,72.71
2023-05-05T11:45:50.589Z,72.20
2023-05-05T11:46:50.542Z,70.29
2023-05-05T11:47:50.567Z,69.52
2023-05-05T11:48:50.495Z,72.03
2023-05-05T11:49:50.502Z,72.50
2023-05-05T11:50:50.484Z,72.64
2023-05-05T11:51:50.486Z,73.75
2023-05-05T11:52:50.454Z,71.83
2023-05-05T11:53:50.479Z,70.73
2023-05-05T11:54:50.491Z,67.61
2023-05-05T11:55:50.432Z,65.80
2023-05-05T11:56:50.428Z,64.89
2023-05-05T11:57:50.458Z,65.90
2023-05-05T11:58:50.417Z,64.89
2023-05-05T11:59:50.460Z,65.70
2023-05-05T12:00:50.390Z,66.30
2023-05-05T12:01:50.357Z,65.90
2023-05-05T12:02:50.465Z,66.10
2023-05-05T12:03:50.524Z,66.97
2023-05-05T12:04:50.430Z,65.16
2023-05-05T12:05:50.338Z,66.57
2023-05-05T12:06:50.317Z,66.47
2023-05-05T12:07:50.300Z,66.87
2023-05-05T12:08:50.297Z,68.38
2023-05-05T12:09:50.286Z,67.18
2023-05-05T12:10:50.276Z,65.26
2023-05-05T12:11:50.267Z,66.47
2023-05-05T12:12:50.293Z,67.68
2023-05-05T12:13:50.231Z,68.59
2023-05-05T12:14:50.216Z,68.68
2023-05-05T12:15:50.203Z,68.18
2023-05-05T12:16:50.228Z,69.79
2023-05-05T12:17:50.219Z,70.50
2023-05-05T12:18:50.172Z,69.49
2023-05-05T12:19:50.166Z,67.07
2023-05-05T12:20:50.176Z,67.55
2023-05-05T12:21:50.149Z,67.85
2023-05-05T12:22:50.125Z,65.23
2023-05-05T12:23:50.131Z,67.24
2023-05-05T12:24:50.109Z,65.94
2023-05-05T12:25:50.105Z,67.14
2023-05-05T12:26:50.097Z,65.41
2023-05-05T12:27:50.108Z,65.50
2023-05-05T12:28:50.116Z,66.20
2023-05-05T12:29:50.090Z,66.71
2023-05-05T12:30:50.066Z,65.67
2023-05-05T12:31:50.100Z,66.38
2023-05-05T12:32:50.091Z,65.88
2023-05-05T12:33:50.080Z,68.68
2023-05-05T12:34:50.002Z,69.19
2023-05-05T12:35:50.000Z,67.51
2023-05-05T12:36:50.023Z,67.71
2023-05-05T12:37:49.987Z,68.82
2023-05-05T12:38:50.020Z,69.12
2023-05-05T12:39:49.969Z,68.12
2023-05-05T12:40:49.936Z,67.21
2023-05-05T12:41:49.937Z,68.85
2023-05-05T12:42:49.931Z,68.15
2023-05-05T12:43:49.943Z,68.75
2023-05-05T12:44:49.905Z,68.95
2023-05-05T12:45:49.957Z,69.15
2023-05-05T12:46:49.911Z,69.56
2023-05-05T12:47:49.903Z,70.46
2023-05-05T12:48:49.850Z,67.65
2023-05-05T12:49:49.900Z,67.94
2023-05-05T12:50:49.828Z,67.35
2023-05-05T12:51:49.932Z,67.65
2023-05-05T12:52:49.805Z,67.47